createdAt,value
2022-08-02T00:00:10.884Z,4.68
2022-08-02T00:02:57.708Z,7.47
2022-08-02T00:05:24.817Z,5.40
2022-08-02T00:07:51.553Z,4.90
2022-08-02T00:10:18.328Z,4.70
2022-08-02T00:12:45.284Z,4.70
2022-08-02T00:15:16.209Z,5.20
2022-08-02T00:17:44.250Z,6.28
2022-08-02T00:20:12.614Z,6.85
2022-08-02T00:22:39.447Z,7.63
2022-08-02T00:25:06.844Z,9.25
2022-08-02T00:27:33.851Z,5.05
2022-08-02T00:30:00.653Z,6.20
2022-08-02T00:32:27.495Z,5.65
2022-08-02T00:34:54.443Z,5.25
2022-08-02T00:37:21.249Z,5.45
2022-08-02T00:39:48.026Z,8.60
2022-08-02T00:42:16.060Z,7.30
2022-08-02T00:44:43.040Z,5.85
2022-08-02T00:47:09.960Z,6.25
2022-08-02T00:49:37.655Z,5.35
2022-08-02T00:52:05.029Z,6.20
2022-08-02T00:54:31.821Z,7.00
2022-08-02T00:56:58.762Z,6.20
2022-08-02T00:59:25.565Z,7.00
2022-08-02T01:01:56.675Z,5.97
2022-08-02T01:04:30.332Z,7.43
2022-08-02T01:07:00.226Z,5.38
2022-08-02T01:09:28.140Z,7.25
2022-08-02T01:11:54.883Z,7.05
2022-08-02T01:14:24.440Z,8.15
2022-08-02T01:17:02.978Z,5.53
2022-08-02T01:19:47.915Z,7.10
2022-08-02T01:22:59.938Z,6.43
2022-08-02T01:25:50.479Z,6.15
2022-08-02T01:28:39.029Z,6.75
2022-08-02T01:31:16.426Z,5.90
2022-08-02T01:34:01.733Z,8.15
2022-08-02T01:36:33.033Z,8.52
2022-08-02T01:39:04.032Z,7.68
2022-08-02T01:41:32.500Z,5.30
2022-08-02T01:44:01.498Z,5.53
2022-08-02T01:46:30.343Z,6.85
2022-08-02T01:48:59.674Z,6.95
2022-08-02T01:51:47.635Z,6.60
2022-08-02T01:54:16.660Z,7.90
2022-08-02T01:56:45.451Z,6.45
2022-08-02T01:59:16.593Z,6.78
2022-08-02T02:01:46.016Z,5.88
2022-08-02T02:04:15.381Z,7.25
2022-08-02T02:06:44.980Z,8.30
2022-08-02T02:09:14.581Z,6.10
2022-08-02T02:12:06.321Z,8.00
2022-08-02T02:14:33.769Z,6.70
2022-08-02T02:17:02.306Z,8.73
2022-08-02T02:19:29.707Z,6.82
2022-08-02T02:21:57.684Z,6.05
2022-08-02T02:24:24.557Z,6.53
2022-08-02T02:26:52.336Z,4.78
2022-08-02T02:29:22.464Z,8.65
2022-08-02T02:31:51.232Z,7.07
2022-08-02T02:34:41.196Z,5.85
2022-08-02T02:37:14.073Z,8.98
2022-08-02T02:39:44.006Z,5.67
2022-08-02T02:42:15.085Z,7.13
2022-08-02T02:44:44.582Z,11.02
2022-08-02T02:47:14.191Z,6.80
2022-08-02T02:49:43.872Z,5.88
2022-08-02T02:52:14.401Z,5.03
2022-08-02T02:54:42.736Z,7.03
2022-08-02T02:57:11.264Z,5.90
2022-08-02T02:59:43.073Z,6.97
2022-08-02T03:02:18.829Z,7.55
2022-08-02T03:04:57.012Z,8.50
2022-08-02T03:07:26.378Z,7.20
2022-08-02T03:09:54.370Z,8.65
2022-08-02T03:12:27.170Z,8.05
2022-08-02T03:14:57.546Z,7.70
2022-08-02T03:17:24.379Z,7.82
2022-08-02T03:19:51.176Z,13.48
2022-08-02T03:22:18.168Z,27.83
2022-08-02T03:24:44.957Z,14.10
2022-08-02T03:27:11.685Z,14.13
2022-08-02T03:29:38.620Z,22.08
2022-08-02T03:32:05.844Z,8.85
2022-08-02T03:34:32.759Z,4.65
2022-08-02T03:37:00.344Z,7.82
2022-08-02T03:39:27.756Z,7.43
2022-08-02T03:41:55.928Z,8.05
2022-08-02T03:44:24.238Z,6.13
2022-08-02T03:46:52.648Z,7.25
2022-08-02T03:49:20.701Z,12.95
2022-08-02T03:51:48.299Z,13.77
2022-08-02T03:54:17.345Z,11.82
2022-08-02T03:56:44.244Z,10.73
2022-08-02T03:59:13.766Z,10.27
2022-08-02T04:01:41.322Z,10.30
2022-08-02T04:04:08.511Z,8.50
2022-08-02T04:06:35.487Z,8.30
2022-08-02T04:09:07.163Z,10.63
2022-08-02T04:11:33.979Z,8.50
2022-08-02T04:14:07.441Z,9.07
2022-08-02T04:16:43.546Z,7.95
2022-08-02T04:19:17.036Z,7.93
2022-08-02T04:21:51.413Z,6.97
2022-08-02T04:24:34.541Z,8.00
2022-08-02T04:27:06.877Z,6.70
2022-08-02T04:29:48.074Z,9.60
2022-08-02T04:32:16.155Z,6.05
2022-08-02T04:34:54.258Z,5.90
2022-08-02T04:37:31.511Z,9.55
2022-08-02T04:39:58.279Z,8.20
2022-08-02T04:42:26.233Z,9.60
2022-08-02T04:44:53.895Z,6.32
2022-08-02T04:47:40.001Z,6.15
2022-08-02T04:50:09.351Z,5.97
2022-08-02T04:52:36.155Z,7.93
2022-08-02T04:55:02.944Z,8.55
2022-08-02T04:57:53.055Z,5.57
2022-08-02T05:00:20.209Z,7.95
2022-08-02T05:02:47.796Z,5.88
2022-08-02T05:05:14.957Z,7.78
2022-08-02T05:07:41.730Z,7.82
2022-08-02T05:10:08.959Z,9.38
2022-08-02T05:12:38.141Z,8.23
2022-08-02T05:15:05.803Z,6.68
2022-08-02T05:17:32.751Z,8.63
2022-08-02T05:19:59.610Z,8.88
2022-08-02T05:22:26.549Z,7.15
2022-08-02T05:24:53.619Z,7.00
2022-08-02T05:27:21.589Z,7.63
2022-08-02T05:29:53.877Z,7.43
2022-08-02T05:32:25.178Z,8.60
2022-08-02T05:34:53.384Z,7.18
2022-08-02T05:37:20.106Z,5.85
2022-08-02T05:39:55.850Z,8.15
2022-08-02T05:42:23.503Z,7.22
2022-08-02T05:44:50.656Z,10.18
2022-08-02T05:47:17.437Z,7.75
2022-08-02T05:49:44.236Z,7.40
2022-08-02T05:52:17.075Z,6.13
2022-08-02T05:55:10.118Z,8.57
2022-08-02T05:57:57.993Z,6.45
2022-08-02T06:00:27.566Z,8.93
2022-08-02T06:02:57.660Z,7.05
2022-08-02T06:05:26.921Z,7.22
2022-08-02T06:07:55.818Z,4.40
2022-08-02T06:10:23.533Z,6.18
2022-08-02T06:13:10.045Z,8.00
2022-08-02T06:15:52.778Z,7.20
2022-08-02T06:18:28.202Z,7.07
2022-08-02T06:22:29.679Z,5.15
2022-08-02T06:23:57.897Z,7.55
2022-08-02T06:26:28.008Z,5.72
2022-08-02T06:28:56.890Z,5.88
2022-08-02T06:31:24.272Z,7.28
2022-08-02T06:33:51.277Z,6.88
2022-08-02T06:37:22.516Z,4.30
2022-08-02T06:39:51.930Z,5.15
2022-08-02T06:42:27.636Z,5.88
2022-08-02T06:44:57.649Z,5.82
2022-08-02T06:47:26.322Z,4.53
2022-08-02T06:49:54.664Z,7.40
2022-08-02T06:52:29.240Z,10.43
2022-08-02T06:54:58.703Z,5.13
2022-08-02T06:57:25.983Z,5.03
2022-08-02T06:59:52.863Z,6.65
2022-08-02T07:02:19.908Z,13.07
2022-08-02T07:04:47.016Z,7.80
2022-08-02T07:07:13.820Z,4.65
2022-08-02T07:09:56.862Z,4.93
2022-08-02T07:12:31.553Z,4.47
2022-08-02T07:15:04.942Z,4.90
2022-08-02T07:17:31.939Z,5.10
2022-08-02T07:19:59.311Z,4.65
2022-08-02T07:22:27.351Z,6.45
2022-08-02T07:24:56.887Z,3.80
2022-08-02T07:27:24.686Z,6.68
2022-08-02T07:29:51.532Z,3.85
2022-08-02T07:32:20.532Z,4.43
2022-08-02T07:34:50.858Z,6.32
2022-08-02T07:37:35.877Z,4.10
2022-08-02T07:40:14.537Z,7.70
2022-08-02T07:45:13.253Z,4.40
2022-08-02T07:47:41.616Z,5.28
2022-08-02T07:50:10.071Z,4.07
2022-08-02T07:52:37.321Z,5.38
2022-08-02T07:55:07.511Z,15.77
2022-08-02T07:57:34.846Z,8.32
2022-08-02T08:00:01.730Z,3.83
2022-08-02T08:02:28.478Z,5.15
2022-08-02T08:04:55.581Z,6.10
2022-08-02T08:07:22.343Z,8.02
2022-08-02T08:09:53.628Z,6.55
2022-08-02T08:12:23.901Z,4.72
2022-08-02T08:14:50.661Z,4.00
2022-08-02T08:17:17.500Z,8.75
2022-08-02T08:19:51.142Z,2.55
2022-08-02T08:22:22.168Z,2.60
2022-08-02T08:24:49.274Z,4.07
2022-08-02T08:27:17.454Z,3.58
2022-08-02T08:29:44.704Z,5.47
2022-08-02T08:32:17.343Z,4.38
2022-08-02T08:34:46.024Z,8.38
2022-08-02T08:37:17.092Z,3.17
2022-08-02T08:39:57.487Z,3.87
2022-08-02T08:42:30.858Z,5.82
2022-08-02T08:44:58.664Z,3.38
2022-08-02T08:47:42.842Z,2.78
2022-08-02T08:50:24.105Z,3.65
2022-08-02T08:53:05.659Z,3.00
2022-08-02T08:55:34.358Z,3.00
2022-08-02T08:58:02.473Z,2.53
2022-08-02T09:00:35.593Z,3.40
2022-08-02T09:03:04.195Z,3.55
2022-08-02T09:05:31.372Z,2.60
2022-08-02T09:07:58.173Z,2.35
2022-08-02T09:10:41.605Z,2.30
2022-08-02T09:15:59.939Z,4.25
2022-08-02T09:18:43.690Z,4.90
2022-08-02T09:21:11.429Z,2.90
2022-08-02T09:23:40.522Z,3.45
2022-08-02T09:26:22.123Z,5.60
2022-08-02T09:28:52.343Z,2.67
2022-08-02T09:31:21.390Z,3.10
2022-08-02T09:33:58.337Z,1.92
2022-08-02T09:36:26.685Z,5.97
2022-08-02T09:39:01.442Z,4.68
2022-08-02T09:41:34.959Z,3.35
2022-08-02T09:44:06.683Z,3.30
2022-08-02T09:46:42.849Z,6.22
2022-08-02T09:49:18.006Z,2.90
2022-08-02T09:51:50.945Z,2.55
2022-08-02T09:54:18.586Z,4.53
2022-08-02T09:56:54.635Z,3.45
2022-08-02T09:59:25.014Z,2.85
2022-08-02T10:02:15.532Z,6.22
2022-08-02T10:04:52.505Z,3.00
2022-08-02T10:07:22.392Z,2.70
2022-08-02T10:09:50.409Z,3.35
2022-08-02T10:12:17.742Z,5.13
2022-08-02T10:14:45.809Z,3.38
2022-08-02T10:17:13.617Z,1.77
2022-08-02T10:20:02.778Z,3.00
2022-08-02T10:22:28.192Z,2.95
2022-08-02T10:24:55.261Z,2.72
2022-08-02T10:27:25.167Z,2.22
2022-08-02T10:29:57.782Z,3.38
2022-08-02T10:32:33.023Z,2.30
2022-08-02T10:35:23.248Z,4.53
2022-08-02T10:37:56.142Z,2.72
2022-08-02T10:40:23.452Z,3.35
2022-08-02T10:42:52.909Z,5.55
2022-08-02T10:45:22.075Z,3.97
2022-08-02T10:48:03.690Z,1.95
2022-08-02T10:50:45.548Z,2.70
2022-08-02T10:53:21.873Z,2.70
2022-08-02T10:55:53.048Z,2.72
2022-08-02T10:58:26.022Z,3.88
2022-08-02T11:00:53.785Z,2.40
2022-08-02T11:03:29.915Z,3.13
2022-08-02T11:06:03.987Z,2.55
2022-08-02T11:08:31.741Z,3.90
2022-08-02T11:11:10.452Z,4.85
2022-08-02T11:14:03.790Z,2.40
2022-08-02T11:19:16.043Z,2.63
2022-08-02T11:22:06.977Z,2.88
2022-08-02T11:24:35.715Z,1.42
2022-08-02T11:27:04.822Z,1.65
2022-08-02T11:29:33.259Z,1.75
2022-08-02T11:32:17.352Z,1.73
2022-08-02T11:34:46.618Z,2.40
2022-08-02T11:37:13.858Z,3.63
2022-08-02T11:39:40.593Z,1.70
2022-08-02T11:42:07.481Z,5.30
2022-08-02T11:44:42.238Z,2.47
2022-08-02T11:47:12.626Z,2.78
2022-08-02T11:49:44.679Z,1.75
2022-08-02T11:52:12.099Z,10.98
2022-08-02T11:54:42.186Z,1.95
2022-08-02T11:57:22.411Z,1.77
2022-08-02T11:59:54.140Z,2.30
2022-08-02T12:02:29.283Z,2.37
2022-08-02T12:05:02.348Z,1.70
2022-08-02T12:07:36.291Z,2.25
2022-08-02T12:10:08.249Z,3.85
2022-08-02T12:12:56.393Z,2.17
2022-08-02T12:15:44.800Z,3.53
2022-08-02T12:18:38.440Z,2.28
2022-08-02T12:21:22.343Z,1.90
2022-08-02T12:23:57.155Z,3.97
2022-08-02T12:26:29.220Z,2.55
2022-08-02T12:28:57.804Z,2.60
2022-08-02T12:31:57.152Z,2.10
2022-08-02T12:34:30.023Z,3.53
2022-08-02T12:37:09.209Z,2.00
2022-08-02T12:39:45.768Z,2.10
2022-08-02T12:42:14.646Z,1.88
2022-08-02T12:44:59.551Z,2.92
2022-08-02T12:47:35.729Z,4.65
2022-08-02T12:50:25.521Z,1.63
2022-08-02T12:53:14.785Z,2.05
2022-08-02T12:56:00.864Z,1.75
2022-08-02T12:58:30.460Z,2.03
2022-08-02T13:01:00.607Z,3.30
2022-08-02T13:04:10.527Z,1.88
2022-08-02T13:06:39.709Z,2.42
2022-08-02T13:09:11.949Z,2.60
2022-08-02T13:11:38.903Z,2.85
2022-08-02T13:14:10.965Z,2.25
2022-08-02T13:16:37.726Z,3.60
2022-08-02T13:19:04.699Z,3.63
2022-08-02T13:21:40.894Z,1.40
2022-08-02T13:24:38.027Z,4.47
2022-08-02T13:27:08.761Z,3.25
2022-08-02T13:29:37.976Z,3.15
2022-08-02T13:32:04.968Z,1.92
2022-08-02T13:34:31.753Z,2.65
2022-08-02T13:36:59.113Z,6.63
2022-08-02T13:39:25.992Z,2.22
2022-08-02T13:41:52.880Z,2.28
2022-08-02T13:44:20.021Z,1.40
2022-08-02T13:46:46.943Z,3.40
2022-08-02T13:49:19.035Z,3.15
2022-08-02T13:51:49.860Z,1.40
2022-08-02T13:54:17.183Z,1.58
2022-08-02T13:56:44.128Z,4.55
2022-08-02T13:59:54.833Z,2.03
2022-08-02T14:02:01.181Z,1.33
2022-08-02T14:04:29.709Z,1.85
2022-08-02T14:06:59.074Z,5.60
2022-08-02T14:09:26.535Z,1.23
2022-08-02T14:11:53.638Z,5.72
2022-08-02T14:14:20.523Z,5.63
2022-08-02T14:16:47.391Z,3.47
2022-08-02T14:19:15.645Z,2.10
2022-08-02T14:21:47.029Z,6.05
2022-08-02T14:24:18.728Z,5.60
2022-08-02T14:26:46.912Z,4.13
2022-08-02T14:29:14.957Z,1.65
2022-08-02T14:31:44.710Z,1.55
2022-08-02T14:34:13.857Z,1.75
2022-08-02T14:36:40.782Z,1.23
2022-08-02T14:39:07.688Z,1.02
2022-08-02T14:41:58.388Z,4.60
2022-08-02T14:44:23.630Z,1.40
2022-08-02T14:46:51.302Z,1.45
2022-08-02T14:49:25.257Z,1.05
2022-08-02T14:51:55.025Z,2.25
2022-08-02T14:54:30.138Z,0.60
2022-08-02T14:57:02.542Z,0.80
2022-08-02T14:59:30.293Z,2.72
2022-08-02T15:01:57.887Z,3.45
2022-08-02T15:04:25.216Z,1.77
2022-08-02T15:06:52.399Z,2.58
2022-08-02T15:09:19.777Z,3.05
2022-08-02T15:11:49.143Z,3.20
2022-08-02T15:14:25.385Z,2.05
2022-08-02T15:16:58.607Z,1.67
2022-08-02T15:19:35.413Z,0.80
2022-08-02T15:22:16.609Z,1.00
2022-08-02T15:24:44.810Z,3.42
2022-08-02T15:27:14.131Z,1.85
2022-08-02T15:29:42.969Z,0.90
2022-08-02T15:32:10.188Z,1.80
2022-08-02T15:34:37.260Z,1.08
2022-08-02T15:37:04.322Z,2.95
2022-08-02T15:39:31.478Z,1.92
2022-08-02T15:41:58.256Z,0.82
2022-08-02T15:44:25.226Z,1.10
2022-08-02T15:46:53.326Z,1.05
2022-08-02T15:49:23.510Z,1.02
2022-08-02T15:51:54.711Z,1.90
2022-08-02T15:54:21.472Z,0.93
2022-08-02T15:56:48.322Z,1.48
2022-08-02T15:59:15.487Z,1.92
2022-08-02T16:01:47.250Z,1.00
2022-08-02T16:04:16.112Z,0.95
2022-08-02T16:06:44.172Z,1.85
2022-08-02T16:09:12.481Z,0.80
2022-08-02T16:11:39.603Z,1.85
2022-08-02T16:14:06.941Z,2.33
2022-08-02T16:16:36.054Z,1.00
2022-08-02T16:19:46.213Z,1.40
2022-08-02T16:21:52.850Z,1.30
2022-08-02T16:24:19.761Z,1.65
2022-08-02T16:26:46.579Z,2.95
2022-08-02T16:29:13.877Z,0.70
2022-08-02T16:31:46.851Z,0.98
2022-08-02T16:34:13.658Z,2.85
2022-08-02T16:36:40.742Z,1.35
2022-08-02T16:39:07.522Z,3.50
2022-08-02T16:41:52.004Z,1.65
2022-08-02T16:44:27.103Z,2.17
2022-08-02T16:47:01.507Z,1.45
2022-08-02T16:50:04.188Z,2.60
2022-08-02T16:52:32.013Z,1.90
2022-08-02T16:54:59.122Z,1.90
2022-08-02T16:57:42.567Z,2.05
2022-08-02T17:00:12.599Z,4.15
2022-08-02T17:02:39.979Z,0.88
2022-08-02T17:05:13.516Z,1.27
2022-08-02T17:08:07.116Z,0.88
2022-08-02T17:10:34.310Z,1.60
2022-08-02T17:13:11.731Z,2.08
2022-08-02T17:16:07.713Z,0.85
2022-08-02T17:18:28.818Z,8.55
2022-08-02T17:20:56.453Z,2.03
2022-08-02T17:23:23.433Z,1.92
2022-08-02T17:26:10.449Z,3.17
2022-08-02T17:28:56.564Z,3.10
2022-08-02T17:31:29.626Z,3.78
2022-08-02T17:33:57.172Z,1.75
2022-08-02T17:36:25.825Z,2.47
2022-08-02T17:38:52.965Z,1.58
2022-08-02T17:41:19.955Z,2.42
2022-08-02T17:44:05.562Z,1.10
2022-08-02T17:46:32.759Z,1.35
2022-08-02T17:49:19.629Z,1.83
2022-08-02T17:52:48.069Z,1.75
2022-08-02T17:54:35.214Z,2.05
2022-08-02T17:57:02.180Z,2.70
2022-08-02T17:59:41.703Z,2.92
2022-08-02T18:02:11.147Z,1.20
2022-08-02T18:04:38.266Z,1.27
2022-08-02T18:07:09.555Z,1.30
2022-08-02T18:09:37.713Z,5.45
2022-08-02T18:12:13.986Z,1.73
2022-08-02T18:14:46.171Z,3.50
2022-08-02T18:17:16.749Z,3.17
2022-08-02T18:19:57.391Z,1.63
2022-08-02T18:22:26.899Z,1.87
2022-08-02T18:24:54.308Z,1.85
2022-08-02T18:27:21.969Z,3.05
2022-08-02T18:33:55.592Z,0.90
2022-08-02T18:35:26.211Z,1.45
2022-08-02T18:40:27.803Z,2.83
2022-08-02T18:42:54.679Z,1.30
2022-08-02T18:45:21.693Z,1.23
2022-08-02T18:47:50.745Z,1.70
2022-08-02T18:50:19.605Z,4.38
2022-08-02T18:52:48.035Z,2.63
2022-08-02T18:55:17.590Z,1.20
2022-08-02T18:58:17.789Z,1.92
2022-08-02T19:00:47.427Z,1.42
2022-08-02T19:03:19.446Z,1.40
2022-08-02T19:05:51.664Z,2.75
2022-08-02T19:08:19.503Z,2.42
2022-08-02T19:13:20.052Z,2.88
2022-08-02T19:15:47.778Z,2.53
2022-08-02T19:18:14.909Z,3.10
2022-08-02T19:20:48.272Z,1.90
2022-08-02T19:23:17.218Z,3.47
2022-08-02T19:25:54.377Z,2.00
2022-08-02T19:28:26.152Z,1.75
2022-08-02T19:30:54.857Z,2.42
2022-08-02T19:33:54.683Z,2.20
2022-08-02T19:36:08.747Z,2.33
2022-08-02T19:38:43.763Z,1.35
2022-08-02T19:41:13.612Z,4.93
2022-08-02T19:44:23.173Z,1.75
2022-08-02T19:46:27.729Z,5.03
2022-08-02T19:48:54.664Z,1.50
2022-08-02T19:51:49.631Z,3.20
2022-08-02T19:54:10.937Z,3.88
2022-08-02T19:56:40.283Z,1.70
2022-08-02T19:59:13.119Z,3.88
2022-08-02T20:01:43.534Z,3.55
2022-08-02T20:04:14.129Z,2.38
2022-08-02T20:06:47.434Z,3.33
2022-08-02T20:09:16.648Z,1.77
2022-08-02T20:11:45.419Z,1.77
2022-08-02T20:14:13.360Z,2.40
2022-08-02T20:16:41.666Z,3.97
2022-08-02T20:19:09.014Z,1.48
2022-08-02T20:21:38.157Z,3.25
2022-08-02T20:26:47.213Z,1.90
2022-08-02T20:29:15.318Z,2.88
2022-08-02T20:32:02.428Z,2.72
2022-08-02T20:34:29.429Z,3.28
2022-08-02T20:36:56.605Z,4.07
2022-08-02T20:39:23.856Z,2.85
2022-08-02T20:42:22.575Z,4.15
2022-08-02T20:44:54.091Z,3.80
2022-08-02T20:47:27.568Z,3.33
2022-08-02T20:50:14.733Z,5.18
2022-08-02T20:52:44.096Z,2.83
2022-08-02T20:55:17.315Z,3.13
2022-08-02T20:57:49.102Z,3.22
2022-08-02T21:00:27.295Z,3.17
2022-08-02T21:02:54.125Z,4.40
2022-08-02T21:05:20.909Z,2.15
2022-08-02T21:08:14.142Z,3.03
2022-08-02T21:10:50.215Z,2.15
2022-08-02T21:13:26.822Z,2.38
2022-08-02T21:15:57.084Z,3.85
2022-08-02T21:18:37.692Z,5.20
2022-08-02T21:21:06.989Z,2.35
2022-08-02T21:23:36.830Z,3.15
2022-08-02T21:26:06.595Z,2.38
2022-08-02T21:31:21.152Z,5.10
2022-08-02T21:33:58.694Z,3.42
2022-08-02T21:36:33.148Z,4.38
2022-08-02T21:39:08.798Z,2.30
2022-08-02T21:41:46.177Z,2.58
2022-08-02T21:44:16.347Z,2.05
2022-08-02T21:46:45.407Z,6.63
2022-08-02T21:49:16.638Z,5.05
2022-08-02T21:51:43.704Z,6.22
2022-08-02T21:54:20.128Z,4.50
2022-08-02T21:56:50.249Z,4.80
2022-08-02T21:59:25.756Z,7.10
2022-08-02T22:01:57.093Z,19.85
2022-08-02T22:04:25.925Z,12.35
2022-08-02T22:06:54.920Z,14.95
2022-08-02T22:09:42.140Z,8.25
2022-08-02T22:12:12.542Z,12.95
2022-08-02T22:14:42.738Z,15.48
2022-08-02T22:17:13.546Z,12.45
2022-08-02T22:19:51.150Z,5.03
2022-08-02T22:22:28.141Z,6.18
2022-08-02T22:24:56.842Z,6.00
2022-08-02T22:28:36.059Z,4.95
2022-08-02T22:30:11.835Z,7.00
2022-08-02T22:32:57.812Z,6.10
2022-08-02T22:35:24.763Z,9.95
2022-08-02T22:38:16.782Z,3.78
2022-08-02T22:40:39.094Z,5.43
2022-08-02T22:43:06.271Z,3.95
2022-08-02T22:45:37.465Z,4.85
2022-08-02T22:48:05.930Z,3.63
2022-08-02T22:50:33.919Z,3.63
2022-08-02T22:53:02.910Z,3.30
2022-08-02T22:55:32.275Z,5.15
2022-08-02T22:57:59.494Z,4.38
2022-08-02T22:58:58.666Z,2.92
2022-08-02T22:59:02.780Z,6.63
2022-08-02T23:00:27.029Z,11.02
2022-08-02T23:02:54.217Z,4.97
2022-08-02T23:05:21.874Z,7.63
2022-08-02T23:07:48.895Z,3.40
2022-08-02T23:10:15.835Z,6.40
2022-08-02T23:12:42.607Z,5.22
2022-08-02T23:15:10.097Z,4.63
2022-08-02T23:17:55.824Z,3.53
2022-08-02T23:20:22.867Z,4.40
2022-08-02T23:22:50.490Z,4.55
2022-08-02T23:25:17.348Z,5.22
2022-08-02T23:27:50.231Z,2.67
2022-08-02T23:30:19.006Z,5.85
2022-08-02T23:32:46.961Z,3.22
2022-08-02T23:35:16.694Z,3.63
2022-08-02T23:37:59.057Z,2.80
2022-08-02T23:40:38.672Z,6.30
2022-08-02T23:43:13.453Z,4.32
2022-08-02T23:45:41.998Z,6.32
2022-08-02T23:48:09.069Z,3.05
2022-08-02T23:50:38.427Z,3.35
2022-08-02T23:53:08.365Z,3.17
2022-08-02T23:55:35.611Z,4.15
2022-08-02T23:58:02.636Z,3.83
